Hailey, ID (83333)

11:23 AM MST on December 21, 2014 (GMT -0700)
RAWS OHIO GULCH ID US | Change Station
CLOSE
Current Station
Personal Weather Station
Location: Hailey, ID
Elevation: 6248 ft
Nearby Weather Stations

Elev 6248 ft 43.60 °N, 114.32 °W | Updated 39 minutes ago

Overcast
Overcast
31 °F
Feels Like 31 °F
N
0
Wind Variable Wind from North
Gusts 0.0 mph

Today
High -- | Low -- °F
--% Chance of Precip.
Yesterday
High -- | Low -- °F
Precip. -- in
8:07 AM 5:03 PM
Waning Crescent, 0% visible
Pressure 29.83 in
Visibility 5.0 miles
Clouds Scattered Clouds 1000 ft
Mostly Cloudy 3000 ft
Overcast 4000 ft
Windchill 31 °F
Dew Point 29 °F
Humidity 94%
Rainfall 0.08 in
Snow Depth Not available.
UV 0 out of 12
Pollen .10 out of 12
Air Quality Not available.
Flu Activity Not available.
METAR KSUN 211747Z 31004KT 5SM BR SCT010 BKN030 OVC040 01/01 A2983

More Conditions Fewer Conditions

Pressure 29.83 in
Visibility 5.0 miles
Clouds Scattered Clouds 1000 ft
Mostly Cloudy 3000 ft
Overcast 4000 ft
Windchill 31 °F
Dew Point 29 °F
Humidity 94%
Rainfall 0.08 in
Snow Depth Not available.
UV 0 out of 12
Pollen .10 out of 12
Air Quality Not available.
Flu Activity Not available.
METAR KSUN 211747Z 31004KT 5SM BR SCT010 BKN030 OVC040 01/01 A2983

More Conditions Fewer Conditions

10-Day Weather Forecast

Almanac

Astronomy

Dec. 21, 2014 Rise Set
Actual Time
Civil Twilight
Nautical Twilight
Astronomical Twilight
Moon
Length of Visible Light
Length of Day
Tomorrow will be .
, % of the Moon is Illuminated

Today's Extremes

State Highs State Lows

Community

WunderPhotos

Upload Photos

1,779,446 photos uploaded!

WunderBlogs® & News

Nearby

Air Quality

  Air Quality AQ Index Pollutant
Not available.

Snow Depth

Station Depth Elevation

Earthquake Activity

City Distance Mag. Time & Date
Minimum magnitude displayed is 2.5.

Coastal Water Temperatures

Place Temperature

Nearby Weather Stations